sensor_id;sensor_type;location;lat;lon;timestamp;pressure;altitude;pressure_sealevel;temperature;humidity
51313;BME280;37397;53.226;10.400;2023-06-26T00:01:02;101040.50;;;25.63;50.87
51313;BME280;37397;53.226;10.400;2023-06-26T00:03:29;101043.25;;;25.61;50.69
51313;BME280;37397;53.226;10.400;2023-06-26T00:05:56;101046.56;;;25.57;51.17
51313;BME280;37397;53.226;10.400;2023-06-26T00:08:28;101039.75;;;25.55;51.24
51313;BME280;37397;53.226;10.400;2023-06-26T00:10:54;101041.69;;;25.52;51.10
51313;BME280;37397;53.226;10.400;2023-06-26T00:13:22;101032.34;;;25.46;51.22
51313;BME280;37397;53.226;10.400;2023-06-26T00:15:50;101028.66;;;25.45;51.29
51313;BME280;37397;53.226;10.400;2023-06-26T00:18:17;101023.75;;;25.40;51.29
51313;BME280;37397;53.226;10.400;2023-06-26T00:20:43;101025.13;;;25.39;51.26
51313;BME280;37397;53.226;10.400;2023-06-26T00:23:15;101014.63;;;25.36;51.14
51313;BME280;37397;53.226;10.400;2023-06-26T00:25:43;101012.84;;;25.33;51.25
51313;BME280;37397;53.226;10.400;2023-06-26T00:28:10;101008.19;;;25.30;51.59
51313;BME280;37397;53.226;10.400;2023-06-26T00:30:37;101013.03;;;25.27;51.36
51313;BME280;37397;53.226;10.400;2023-06-26T00:33:04;101018.66;;;25.25;51.26
51313;BME280;37397;53.226;10.400;2023-06-26T00:35:30;101014.75;;;25.23;51.62
51313;BME280;37397;53.226;10.400;2023-06-26T00:37:57;101019.63;;;25.20;51.77
51313;BME280;37397;53.226;10.400;2023-06-26T00:40:23;101019.44;;;25.18;51.54
51313;BME280;37397;53.226;10.400;2023-06-26T00:42:50;101026.44;;;25.15;51.43
51313;BME280;37397;53.226;10.400;2023-06-26T00:45:17;101012.78;;;25.10;51.53
51313;BME280;37397;53.226;10.400;2023-06-26T00:47:55;101016.31;;;25.08;51.79
51313;BME280;37397;53.226;10.400;2023-06-26T00:50:22;101013.16;;;25.06;51.54
51313;BME280;37397;53.226;10.400;2023-06-26T00:52:49;101012.22;;;25.04;51.96
51313;BME280;37397;53.226;10.400;2023-06-26T00:55:15;101011.22;;;25.01;52.00
51313;BME280;37397;53.226;10.400;2023-06-26T00:57:42;101012.38;;;24.98;51.75
51313;BME280;37397;53.226;10.400;2023-06-26T01:00:12;101001.84;;;24.95;51.77
51313;BME280;37397;53.226;10.400;2023-06-26T01:02:39;100995.63;;;24.91;51.80
51313;BME280;37397;53.226;10.400;2023-06-26T01:05:06;100988.22;;;24.90;52.07
51313;BME280;37397;53.226;10.400;2023-06-26T01:07:35;100990.72;;;24.86;51.67
51313;BME280;37397;53.226;10.400;2023-06-26T01:10:04;100989.78;;;24.83;51.92
51313;BME280;37397;53.226;10.400;2023-06-26T01:12:32;100987.44;;;24.82;52.16
51313;BME280;37397;53.226;10.400;2023-06-26T01:14:59;100987.81;;;24.78;52.14
51313;BME280;37397;53.226;10.400;2023-06-26T01:17:27;100988.41;;;24.77;51.73
51313;BME280;37397;53.226;10.400;2023-06-26T01:20:03;100981.38;;;24.72;51.98
51313;BME280;37397;53.226;10.400;2023-06-26T01:22:39;100978.84;;;24.68;52.31
51313;BME280;37397;53.226;10.400;2023-06-26T01:27:48;100982.91;;;24.65;52.19
51313;BME280;37397;53.226;10.400;2023-06-26T01:30:16;100980.34;;;24.62;52.04
51313;BME280;37397;53.226;10.400;2023-06-26T01:32:44;100966.38;;;24.60;52.56
51313;BME280;37397;53.226;10.400;2023-06-26T01:35:12;100970.19;;;24.55;52.14
51313;BME280;37397;53.226;10.400;2023-06-26T01:37:39;100954.63;;;24.52;51.86
51313;BME280;37397;53.226;10.400;2023-06-26T01:40:07;100963.16;;;24.50;52.21
51313;BME280;37397;53.226;10.400;2023-06-26T01:42:34;100947.63;;;24.48;52.22
51313;BME280;37397;53.226;10.400;2023-06-26T01:45:12;100964.13;;;24.45;52.20
51313;BME280;37397;53.226;10.400;2023-06-26T01:47:40;100958.88;;;24.44;52.26
51313;BME280;37397;53.226;10.400;2023-06-26T01:50:12;100954.19;;;24.40;52.24
51313;BME280;37397;53.226;10.400;2023-06-26T01:52:42;100951.09;;;24.38;52.85
51313;BME280;37397;53.226;10.400;2023-06-26T01:55:36;100951.47;;;24.35;52.59
51313;BME280;37397;53.226;10.400;2023-06-26T01:58:04;100953.38;;;24.32;52.62
51313;BME280;37397;53.226;10.400;2023-06-26T02:00:31;100938.59;;;24.30;52.41
51313;BME280;37397;53.226;10.400;2023-06-26T02:02:58;100953.00;;;24.28;52.54
51313;BME280;37397;53.226;10.400;2023-06-26T02:05:25;100949.84;;;24.26;52.59
51313;BME280;37397;53.226;10.400;2023-06-26T02:07:52;100939.38;;;24.23;52.43
51313;BME280;37397;53.226;10.400;2023-06-26T02:10:18;100950.81;;;24.21;52.73
51313;BME280;37397;53.226;10.400;2023-06-26T02:12:45;100937.38;;;24.18;52.20
51313;BME280;37397;53.226;10.400;2023-06-26T02:15:12;100931.94;;;24.14;52.60
51313;BME280;37397;53.226;10.400;2023-06-26T02:17:39;100929.59;;;24.13;52.73
51313;BME280;37397;53.226;10.400;2023-06-26T02:20:06;100926.47;;;24.11;52.71
51313;BME280;37397;53.226;10.400;2023-06-26T02:22:35;100927.63;;;24.08;52.86
51313;BME280;37397;53.226;10.400;2023-06-26T02:25:02;100924.50;;;24.06;53.09
51313;BME280;37397;53.226;10.400;2023-06-26T02:27:28;100920.59;;;24.03;53.06
51313;BME280;37397;53.226;10.400;2023-06-26T02:29:55;100913.78;;;24.00;53.18
51313;BME280;37397;53.226;10.400;2023-06-26T02:32:21;100912.03;;;23.97;52.68
51313;BME280;37397;53.226;10.400;2023-06-26T02:34:49;100918.44;;;23.96;52.98
51313;BME280;37397;53.226;10.400;2023-06-26T02:37:18;100918.22;;;23.94;52.92
51313;BME280;37397;53.226;10.400;2023-06-26T02:39:45;100918.59;;;23.90;52.99
51313;BME280;37397;53.226;10.400;2023-06-26T02:42:12;100921.50;;;23.90;53.28
51313;BME280;37397;53.226;10.400;2023-06-26T02:44:38;100911.19;;;23.89;53.16
51313;BME280;37397;53.226;10.400;2023-06-26T02:47:05;100913.72;;;23.85;53.39
51313;BME280;37397;53.226;10.400;2023-06-26T02:49:34;100908.47;;;23.83;53.52
51313;BME280;37397;53.226;10.400;2023-06-26T02:52:00;100902.97;;;23.80;53.07
51313;BME280;37397;53.226;10.400;2023-06-26T02:54:28;100902.97;;;23.80;53.26
51313;BME280;37397;53.226;10.400;2023-06-26T02:57:01;100904.13;;;23.77;53.43
51313;BME280;37397;53.226;10.400;2023-06-26T02:59:29;100902.56;;;23.76;53.46
51313;BME280;37397;53.226;10.400;2023-06-26T03:01:57;100901.00;;;23.75;53.44
51313;BME280;37397;53.226;10.400;2023-06-26T03:04:41;100896.34;;;23.72;53.42
51313;BME280;37397;53.226;10.400;2023-06-26T03:07:11;100896.69;;;23.68;53.67
51313;BME280;37397;53.226;10.400;2023-06-26T03:09:40;100890.84;;;23.68;53.36
51313;BME280;37397;53.226;10.400;2023-06-26T03:12:07;100886.16;;;23.65;53.40
51313;BME280;37397;53.226;10.400;2023-06-26T03:14:34;100889.09;;;23.65;53.38
51313;BME280;37397;53.226;10.400;2023-06-26T03:17:00;100889.66;;;23.63;53.67
51313;BME280;37397;53.226;10.400;2023-06-26T03:19:31;100894.72;;;23.63;53.50
51313;BME280;37397;53.226;10.400;2023-06-26T03:22:14;100894.31;;;23.59;53.62
51313;BME280;37397;53.226;10.400;2023-06-26T03:24:41;100880.31;;;23.57;54.10
51313;BME280;37397;53.226;10.400;2023-06-26T03:27:07;100881.47;;;23.54;53.78
51313;BME280;37397;53.226;10.400;2023-06-26T03:29:36;100877.19;;;23.55;53.79
51313;BME280;37397;53.226;10.400;2023-06-26T03:32:02;100879.91;;;23.53;54.19
51313;BME280;37397;53.226;10.400;2023-06-26T03:34:29;100882.03;;;23.53;54.21
51313;BME280;37397;53.226;10.400;2023-06-26T03:36:55;100876.78;;;23.51;54.33
51313;BME280;37397;53.226;10.400;2023-06-26T03:39:22;100876.59;;;23.49;54.16
51313;BME280;37397;53.226;10.400;2023-06-26T03:41:49;100872.09;;;23.48;53.96
51313;BME280;37397;53.226;10.400;2023-06-26T03:44:15;100865.28;;;23.45;54.34
51313;BME280;37397;53.226;10.400;2023-06-26T03:46:46;100868.19;;;23.45;54.15
51313;BME280;37397;53.226;10.400;2023-06-26T03:49:13;100873.25;;;23.45;54.19
51313;BME280;37397;53.226;10.400;2023-06-26T03:51:40;100868.34;;;23.40;54.22
51313;BME280;37397;53.226;10.400;2023-06-26T03:54:06;100870.13;;;23.43;54.44
51313;BME280;37397;53.226;10.400;2023-06-26T03:56:33;100859.63;;;23.40;54.29
51313;BME280;37397;53.226;10.400;2023-06-26T03:58:59;100869.69;;;23.39;54.10
51313;BME280;37397;53.226;10.400;2023-06-26T04:01:26;100866.59;;;23.37;54.17
51313;BME280;37397;53.226;10.400;2023-06-26T04:03:54;100866.59;;;23.37;54.27
51313;BME280;37397;53.226;10.400;2023-06-26T04:06:20;100863.47;;;23.35;54.16
51313;BME280;37397;53.226;10.400;2023-06-26T04:08:47;100867.16;;;23.35;54.46
51313;BME280;37397;53.226;10.400;2023-06-26T04:11:15;100861.91;;;23.34;54.42
51313;BME280;37397;53.226;10.400;2023-06-26T04:13:41;100859.00;;;23.34;54.51
51313;BME280;37397;53.226;10.400;2023-06-26T04:16:08;100861.13;;;23.33;54.71
51313;BME280;37397;53.226;10.400;2023-06-26T04:18:34;100855.66;;;23.29;54.49
51313;BME280;37397;53.226;10.400;2023-06-26T04:21:11;100858.78;;;23.32;54.48
51313;BME280;37397;53.226;10.400;2023-06-26T04:23:39;100840.91;;;23.27;54.74
51313;BME280;37397;53.226;10.400;2023-06-26T04:26:07;100848.28;;;23.28;54.57
51313;BME280;37397;53.226;10.400;2023-06-26T04:28:34;100840.91;;;23.27;54.64
51313;BME280;37397;53.226;10.400;2023-06-26T04:31:01;100847.50;;;23.28;54.79
51313;BME280;37397;53.226;10.400;2023-06-26T04:33:29;100835.66;;;23.26;54.54
51313;BME280;37397;53.226;10.400;2023-06-26T04:35:56;100836.22;;;23.24;54.75
51313;BME280;37397;53.226;10.400;2023-06-26T04:38:23;100834.88;;;23.25;55.02
51313;BME280;37397;53.226;10.400;2023-06-26T04:40:49;100836.78;;;23.23;55.00
51313;BME280;37397;53.226;10.400;2023-06-26T04:43:16;100830.41;;;23.24;55.13
51313;BME280;37397;53.226;10.400;2023-06-26T04:45:42;100828.84;;;23.23;54.85
51313;BME280;37397;53.226;10.400;2023-06-26T04:48:09;100826.72;;;23.24;55.04
51313;BME280;37397;53.226;10.400;2023-06-26T04:50:36;100831.97;;;23.25;55.07
51313;BME280;37397;53.226;10.400;2023-06-26T04:53:02;100815.63;;;23.22;55.08
51313;BME280;37397;53.226;10.400;2023-06-26T04:55:29;100821.84;;;23.26;55.22
51313;BME280;37397;53.226;10.400;2023-06-26T04:57:56;100822.47;;;23.25;55.12
51313;BME280;37397;53.226;10.400;2023-06-26T05:00:23;100817.97;;;23.24;55.37
51313;BME280;37397;53.226;10.400;2023-06-26T05:02:51;100812.56;;;23.28;55.26
51313;BME280;37397;53.226;10.400;2023-06-26T05:05:28;100810.22;;;23.26;55.10
51313;BME280;37397;53.226;10.400;2023-06-26T05:07:55;100802.47;;;23.29;55.62
51313;BME280;37397;53.226;10.400;2023-06-26T05:10:22;100798.22;;;23.30;55.69
51313;BME280;37397;53.226;10.400;2023-06-26T05:12:48;100802.91;;;23.33;55.64
51313;BME280;37397;53.226;10.400;2023-06-26T05:15:15;100796.28;;;23.33;55.70
51313;BME280;37397;53.226;10.400;2023-06-26T05:17:41;100796.50;;;23.35;55.50
51313;BME280;37397;53.226;10.400;2023-06-26T05:20:08;100796.31;;;23.40;55.51
51313;BME280;37397;53.226;10.400;2023-06-26T05:22:36;100789.72;;;23.40;55.48
51313;BME280;37397;53.226;10.400;2023-06-26T05:25:07;100785.88;;;23.45;55.62
51313;BME280;37397;53.226;10.400;2023-06-26T05:27:35;100783.16;;;23.47;55.39
51313;BME280;37397;53.226;10.400;2023-06-26T05:30:02;100783.56;;;23.51;55.40
51313;BME280;37397;53.226;10.400;2023-06-26T05:32:30;100780.28;;;23.55;54.96
51313;BME280;37397;53.226;10.400;2023-06-26T05:35:01;100781.28;;;23.57;54.96
51313;BME280;37397;53.226;10.400;2023-06-26T05:37:29;100777.41;;;23.62;55.07
51313;BME280;37397;53.226;10.400;2023-06-26T05:39:57;100770.19;;;23.63;55.05
51313;BME280;37397;53.226;10.400;2023-06-26T05:42:23;100761.88;;;23.67;54.79
51313;BME280;37397;53.226;10.400;2023-06-26T05:44:50;100771.03;;;23.72;55.00
51313;BME280;37397;53.226;10.400;2023-06-26T05:47:17;100761.16;;;23.75;54.83
51313;BME280;37397;53.226;10.400;2023-06-26T05:49:44;100756.09;;;23.75;54.91
51313;BME280;37397;53.226;10.400;2023-06-26T05:52:11;100761.53;;;23.79;54.92
51313;BME280;37397;53.226;10.400;2023-06-26T05:54:38;100759.06;;;23.83;55.01
51313;BME280;37397;53.226;10.400;2023-06-26T05:57:05;100765.84;;;23.85;54.84
51313;BME280;37397;53.226;10.400;2023-06-26T05:59:32;100759.63;;;23.89;54.99
51313;BME280;37397;53.226;10.400;2023-06-26T06:01:59;100751.13;;;23.91;54.91
51313;BME280;37397;53.226;10.400;2023-06-26T06:04:25;100752.06;;;23.94;55.11
51313;BME280;37397;53.226;10.400;2023-06-26T06:06:52;100758.91;;;23.96;55.09
51313;BME280;37397;53.226;10.400;2023-06-26T06:09:18;100756.16;;;23.98;55.10
51313;BME280;37397;53.226;10.400;2023-06-26T06:11:45;100750.34;;;23.98;55.11
51313;BME280;37397;53.226;10.400;2023-06-26T06:14:11;100751.91;;;23.99;54.97
51313;BME280;37397;53.226;10.400;2023-06-26T06:16:38;100754.63;;;24.05;55.25
51313;BME280;37397;53.226;10.400;2023-06-26T06:19:04;100745.13;;;24.05;54.86
51313;BME280;37397;53.226;10.400;2023-06-26T06:21:33;100742.59;;;24.09;54.92
51313;BME280;37397;53.226;10.400;2023-06-26T06:23:59;100732.09;;;24.06;55.48
51313;BME280;37397;53.226;10.400;2023-06-26T06:26:27;100745.31;;;24.14;55.27
51313;BME280;37397;53.226;10.400;2023-06-26T06:28:54;100749.22;;;24.17;55.50
51313;BME280;37397;53.226;10.400;2023-06-26T06:31:20;100742.22;;;24.20;55.34
51313;BME280;37397;53.226;10.400;2023-06-26T06:33:46;100740.28;;;24.23;55.53
51313;BME280;37397;53.226;10.400;2023-06-26T06:36:13;100744.19;;;24.25;55.46
51313;BME280;37397;53.226;10.400;2023-06-26T06:38:43;100734.28;;;24.28;55.36
51313;BME280;37397;53.226;10.400;2023-06-26T06:41:10;100737.94;;;24.29;55.42
51313;BME280;37397;53.226;10.400;2023-06-26T06:43:36;100739.91;;;24.34;55.38
51313;BME280;37397;53.226;10.400;2023-06-26T06:46:03;100729.03;;;24.34;55.28
51313;BME280;37397;53.226;10.400;2023-06-26T06:48:30;100726.28;;;24.36;55.29
51313;BME280;37397;53.226;10.400;2023-06-26T06:50:57;100729.00;;;24.42;55.54
51313;BME280;37397;53.226;10.400;2023-06-26T06:53:24;100729.41;;;24.46;55.23
51313;BME280;37397;53.226;10.400;2023-06-26T06:55:51;100717.34;;;24.50;55.53
51313;BME280;37397;53.226;10.400;2023-06-26T06:58:17;100715.41;;;24.52;55.52
51313;BME280;37397;53.226;10.400;2023-06-26T07:00:45;100709.97;;;24.56;55.46
51313;BME280;37397;53.226;10.400;2023-06-26T07:03:12;100703.75;;;24.60;55.49
51313;BME280;37397;53.226;10.400;2023-06-26T07:05:41;100701.22;;;24.64;55.71
51313;BME280;37397;53.226;10.400;2023-06-26T07:08:08;100694.78;;;24.66;55.86
51313;BME280;37397;53.226;10.400;2023-06-26T07:10:35;100699.47;;;24.69;55.66
51313;BME280;37397;53.226;10.400;2023-06-26T07:13:02;100690.31;;;24.72;55.62
51313;BME280;37397;53.226;10.400;2023-06-26T07:15:28;100695.16;;;24.78;55.95
51313;BME280;37397;53.226;10.400;2023-06-26T07:17:55;100698.28;;;24.80;55.39
51313;BME280;37397;53.226;10.400;2023-06-26T07:20:21;100692.63;;;24.82;55.64
51313;BME280;37397;53.226;10.400;2023-06-26T07:22:48;100683.09;;;24.81;55.58
51313;BME280;37397;53.226;10.400;2023-06-26T07:25:14;100671.78;;;24.85;55.32
51313;BME280;37397;53.226;10.400;2023-06-26T07:27:41;100685.03;;;24.94;55.40
51313;BME280;37397;53.226;10.400;2023-06-26T07:30:08;100692.59;;;24.97;55.57
51313;BME280;37397;53.226;10.400;2023-06-26T07:32:36;100682.63;;;25.00;55.19
51313;BME280;37397;53.226;10.400;2023-06-26T07:35:03;100675.84;;;25.05;55.30
51313;BME280;37397;53.226;10.400;2023-06-26T07:37:29;100678.75;;;25.05;55.23
51313;BME280;37397;53.226;10.400;2023-06-26T07:39:56;100680.84;;;25.12;55.01
51313;BME280;37397;53.226;10.400;2023-06-26T07:42:23;100673.44;;;25.11;55.49
51313;BME280;37397;53.226;10.400;2023-06-26T07:44:50;100669.56;;;25.17;55.35
51313;BME280;37397;53.226;10.400;2023-06-26T07:47:16;100667.00;;;25.21;55.13
51313;BME280;37397;53.226;10.400;2023-06-26T07:49:43;100674.75;;;25.26;54.97
51313;BME280;37397;53.226;10.400;2023-06-26T07:52:09;100679.44;;;25.29;54.86
51313;BME280;37397;53.226;10.400;2023-06-26T07:54:41;100676.75;;;25.31;55.13
51313;BME280;37397;53.226;10.400;2023-06-26T07:57:08;100666.00;;;25.34;54.93
51313;BME280;37397;53.226;10.400;2023-06-26T07:59:35;100675.16;;;25.38;55.31
51313;BME280;37397;53.226;10.400;2023-06-26T08:02:02;100683.66;;;25.43;54.97
51313;BME280;37397;53.226;10.400;2023-06-26T08:04:29;100680.34;;;25.47;55.18
51313;BME280;37397;53.226;10.400;2023-06-26T08:07:00;100677.03;;;25.51;54.84
51313;BME280;37397;53.226;10.400;2023-06-26T08:09:28;100677.38;;;25.55;54.73
51313;BME280;37397;53.226;10.400;2023-06-26T08:11:56;100671.53;;;25.55;54.74
51313;BME280;37397;53.226;10.400;2023-06-26T08:14:22;100683.19;;;25.62;54.55
51313;BME280;37397;53.226;10.400;2023-06-26T08:16:49;100672.28;;;25.63;54.73
51313;BME280;37397;53.226;10.400;2023-06-26T08:19:16;100668.53;;;25.70;54.94
51313;BME280;37397;53.226;10.400;2023-06-26T08:21:44;100673.00;;;25.71;54.82
51313;BME280;37397;53.226;10.400;2023-06-26T08:24:10;100641.03;;;25.73;54.63
51313;BME280;37397;53.226;10.400;2023-06-26T08:26:37;100646.84;;;25.81;54.37
51313;BME280;37397;53.226;10.400;2023-06-26T08:29:04;100658.72;;;25.83;54.70
51313;BME280;37397;53.226;10.400;2023-06-26T08:31:38;100647.63;;;25.81;54.36
51313;BME280;37397;53.226;10.400;2023-06-26T08:34:05;100640.91;;;25.89;54.55
51313;BME280;37397;53.226;10.400;2023-06-26T08:36:32;100633.53;;;25.88;54.44
51313;BME280;37397;53.226;10.400;2023-06-26T08:38:59;100641.66;;;25.97;54.45
51313;BME280;37397;53.226;10.400;2023-06-26T08:41:26;100651.56;;;26.01;54.44
51313;BME280;37397;53.226;10.400;2023-06-26T08:43:52;100632.66;;;26.02;54.22
51313;BME280;37397;53.226;10.400;2023-06-26T08:46:19;100636.13;;;26.09;53.87
51313;BME280;37397;53.226;10.400;2023-06-26T08:48:55;100640.00;;;26.11;53.70
51313;BME280;37397;53.226;10.400;2023-06-26T08:51:24;100640.19;;;26.13;54.03
51313;BME280;37397;53.226;10.400;2023-06-26T08:53:57;100633.31;;;26.18;53.57
51313;BME280;37397;53.226;10.400;2023-06-26T08:56:28;100646.91;;;26.24;53.71
51313;BME280;37397;53.226;10.400;2023-06-26T08:58:58;100641.44;;;26.28;53.31
51313;BME280;37397;53.226;10.400;2023-06-26T09:01:25;100648.81;;;26.29;53.39
51313;BME280;37397;53.226;10.400;2023-06-26T09:03:52;100634.38;;;26.31;53.59
51313;BME280;37397;53.226;10.400;2023-06-26T09:06:18;100637.03;;;26.36;53.58
51313;BME280;37397;53.226;10.400;2023-06-26T09:08:45;100643.66;;;26.37;53.35
51313;BME280;37397;53.226;10.400;2023-06-26T09:11:12;100643.06;;;26.38;53.46
51313;BME280;37397;53.226;10.400;2023-06-26T09:13:39;100647.50;;;26.47;53.42
51313;BME280;37397;53.226;10.400;2023-06-26T09:16:07;100647.06;;;26.51;53.35
51313;BME280;37397;53.226;10.400;2023-06-26T09:18:37;100650.16;;;26.53;53.19
51313;BME280;37397;53.226;10.400;2023-06-26T09:21:07;100649.75;;;26.56;53.30
51313;BME280;37397;53.226;10.400;2023-06-26T09:23:35;100652.41;;;26.62;53.02
51313;BME280;37397;53.226;10.400;2023-06-26T09:26:03;100652.00;;;26.66;52.93
51313;BME280;37397;53.226;10.400;2023-06-26T09:28:32;100651.56;;;26.69;53.13
51313;BME280;37397;53.226;10.400;2023-06-26T09:31:07;100659.94;;;26.73;52.94
51313;BME280;37397;53.226;10.400;2023-06-26T09:33:35;100645.63;;;26.77;53.15
51313;BME280;37397;53.226;10.400;2023-06-26T09:36:07;100651.69;;;26.79;52.74
51313;BME280;37397;53.226;10.400;2023-06-26T09:38:35;100660.47;;;26.79;52.83
51313;BME280;37397;53.226;10.400;2023-06-26T09:41:03;100646.75;;;26.82;53.03
51313;BME280;37397;53.226;10.400;2023-06-26T09:43:30;100660.56;;;26.89;52.95
51313;BME280;37397;53.226;10.400;2023-06-26T09:45:58;100650.56;;;26.92;52.76
51313;BME280;37397;53.226;10.400;2023-06-26T09:48:27;100660.09;;;26.92;52.44
51313;BME280;37397;53.226;10.400;2023-06-26T09:50:55;100666.50;;;26.99;52.46
51313;BME280;37397;53.226;10.400;2023-06-26T09:53:37;100669.22;;;26.97;52.17
51313;BME280;37397;53.226;10.400;2023-06-26T09:56:07;100671.91;;;27.02;52.16
51313;BME280;37397;53.226;10.400;2023-06-26T09:58:42;100659.06;;;26.98;52.25
51313;BME280;37397;53.226;10.400;2023-06-26T10:01:08;100676.56;;;27.05;52.01
51313;BME280;37397;53.226;10.400;2023-06-26T10:03:36;100673.03;;;27.07;52.41
51313;BME280;37397;53.226;10.400;2023-06-26T10:06:03;100674.91;;;27.12;51.96
51313;BME280;37397;53.226;10.400;2023-06-26T10:08:31;100665.53;;;27.14;52.31
51313;BME280;37397;53.226;10.400;2023-06-26T10:10:58;100677.59;;;27.18;51.83
51313;BME280;37397;53.226;10.400;2023-06-26T10:13:37;100676.78;;;27.17;51.78
51313;BME280;37397;53.226;10.400;2023-06-26T10:16:07;100682.22;;;27.21;51.97
51313;BME280;37397;53.226;10.400;2023-06-26T10:18:35;100699.53;;;27.26;51.68
51313;BME280;37397;53.226;10.400;2023-06-26T10:21:03;100702.47;;;27.26;52.00
51313;BME280;37397;53.226;10.400;2023-06-26T10:23:32;100710.06;;;27.29;51.83
51313;BME280;37397;53.226;10.400;2023-06-26T10:26:01;100699.28;;;27.32;51.78
51313;BME280;37397;53.226;10.400;2023-06-26T10:28:31;100703.00;;;27.33;52.00
51313;BME280;37397;53.226;10.400;2023-06-26T10:31:00;100709.19;;;27.37;51.64
51313;BME280;37397;53.226;10.400;2023-06-26T10:33:28;100707.06;;;27.37;51.49
51313;BME280;37397;53.226;10.400;2023-06-26T10:36:15;100704.75;;;27.36;51.80
51313;BME280;37397;53.226;10.400;2023-06-26T10:38:52;100712.94;;;27.37;51.51
51313;BME280;37397;53.226;10.400;2023-06-26T10:41:21;100725.25;;;27.36;51.02
51313;BME280;37397;53.226;10.400;2023-06-26T10:44:06;100726.63;;;27.35;51.15
51313;BME280;37397;53.226;10.400;2023-06-26T10:46:52;100738.19;;;27.33;51.08
51313;BME280;37397;53.226;10.400;2023-06-26T10:49:20;100781.75;;;27.28;51.38
51313;BME280;37397;53.226;10.400;2023-06-26T10:51:48;100774.75;;;27.24;52.29
51313;BME280;37397;53.226;10.400;2023-06-26T10:54:19;100803.28;;;27.23;52.98
51313;BME280;37397;53.226;10.400;2023-06-26T10:56:50;100823.63;;;27.21;53.52
51313;BME280;37397;53.226;10.400;2023-06-26T10:59:21;100822.16;;;27.13;53.53
51313;BME280;37397;53.226;10.400;2023-06-26T11:02:02;100835.84;;;27.10;53.82
51313;BME280;37397;53.226;10.400;2023-06-26T11:04:44;100833.97;;;27.05;53.78
51313;BME280;37397;53.226;10.400;2023-06-26T11:07:22;100848.25;;;27.01;53.87
51313;BME280;37397;53.226;10.400;2023-06-26T11:12:36;100857.94;;;26.86;53.87
51313;BME280;37397;53.226;10.400;2023-06-26T11:15:08;100872.97;;;26.82;53.93
51313;BME280;37397;53.226;10.400;2023-06-26T11:17:35;100875.56;;;26.78;54.56
51313;BME280;37397;53.226;10.400;2023-06-26T11:20:07;100865.25;;;26.69;54.08
51313;BME280;37397;53.226;10.400;2023-06-26T11:22:41;100864.16;;;26.65;54.22
51313;BME280;37397;53.226;10.400;2023-06-26T11:25:09;100885.00;;;26.61;54.57
51313;BME280;37397;53.226;10.400;2023-06-26T11:27:43;100894.03;;;26.55;54.47
51313;BME280;37397;53.226;10.400;2023-06-26T11:30:11;100887.81;;;26.51;54.61
51313;BME280;37397;53.226;10.400;2023-06-26T11:32:39;100897.00;;;26.48;54.32
51313;BME280;37397;53.226;10.400;2023-06-26T11:35:06;100887.66;;;26.42;55.07
51313;BME280;37397;53.226;10.400;2023-06-26T11:37:33;100901.16;;;26.37;54.98
51313;BME280;37397;53.226;10.400;2023-06-26T11:40:16;100906.66;;;26.33;55.46
51313;BME280;37397;53.226;10.400;2023-06-26T11:42:43;100903.53;;;26.31;55.70
51313;BME280;37397;53.226;10.400;2023-06-26T11:45:10;100908.41;;;26.28;55.31
51313;BME280;37397;53.226;10.400;2023-06-26T11:47:38;100892.63;;;26.24;55.88
51313;BME280;37397;53.226;10.400;2023-06-26T11:50:05;100905.53;;;26.20;56.65
51313;BME280;37397;53.226;10.400;2023-06-26T11:52:34;100907.69;;;26.20;56.74
51313;BME280;37397;53.226;10.400;2023-06-26T11:55:01;100904.78;;;26.12;56.97
51313;BME280;37397;53.226;10.400;2023-06-26T11:57:30;100907.88;;;26.14;56.57
51313;BME280;37397;53.226;10.400;2023-06-26T11:59:56;100925.44;;;26.14;56.91
51313;BME280;37397;53.226;10.400;2023-06-26T12:02:23;100922.34;;;26.12;56.95
51313;BME280;37397;53.226;10.400;2023-06-26T12:04:50;100917.66;;;26.09;57.04
51313;BME280;37397;53.226;10.400;2023-06-26T12:07:17;100911.63;;;26.07;57.38
51313;BME280;37397;53.226;10.400;2023-06-26T12:09:47;100915.34;;;26.08;56.86
51313;BME280;37397;53.226;10.400;2023-06-26T12:12:16;100923.16;;;26.05;57.25
51313;BME280;37397;53.226;10.400;2023-06-26T12:14:44;100915.16;;;26.06;57.56
51313;BME280;37397;53.226;10.400;2023-06-26T12:17:11;100921.00;;;26.06;57.86
51313;BME280;37397;53.226;10.400;2023-06-26T12:19:42;100915.75;;;26.04;58.12
51313;BME280;37397;53.226;10.400;2023-06-26T12:22:09;100913.81;;;25.99;58.15
51313;BME280;37397;53.226;10.400;2023-06-26T12:24:38;100921.59;;;25.96;58.20
51313;BME280;37397;53.226;10.400;2023-06-26T12:27:09;100903.66;;;26.00;58.07
51313;BME280;37397;53.226;10.400;2023-06-26T12:29:41;100920.03;;;25.95;57.73
51313;BME280;37397;53.226;10.400;2023-06-26T12:32:09;100925.09;;;25.95;57.58
51313;BME280;37397;53.226;10.400;2023-06-26T12:34:38;100934.09;;;25.89;57.76
51313;BME280;37397;53.226;10.400;2023-06-26T12:37:09;100939.13;;;25.89;57.48
51313;BME280;37397;53.226;10.400;2023-06-26T12:39:56;100918.13;;;25.82;57.38
51313;BME280;37397;53.226;10.400;2023-06-26T12:42:25;100929.41;;;25.86;57.53
51313;BME280;37397;53.226;10.400;2023-06-26T12:44:53;100938.78;;;25.84;57.49
51313;BME280;37397;53.226;10.400;2023-06-26T12:47:27;100920.84;;;25.80;57.31
51313;BME280;37397;53.226;10.400;2023-06-26T12:49:54;100938.78;;;25.77;57.18
51313;BME280;37397;53.226;10.400;2023-06-26T12:52:21;100943.66;;;25.74;57.16